Latest Weather Observations for Geraldton Airport

IDW60801

Issued at 12:02 pm WST Saturday 13 February 2016 (issued every 30 minutes, with the page automatically refreshed every 10 minutes)

About weather observations | Map of weather stations | Latest weather observations for WA | Other Formats
Station Details ID: 008315 Name: GERALDTON AIRPORT Lat: -28.80 Lon: 114.70 Height: 29.7 m
Data from the previous 72 hours. | See also: Recent months at Geraldton Airport
Date/Time
WST
Temp
°C
App
Temp
°C
Dew
Point
Rel
Hum
%
Delta-T
°C
Wind Press
QNH
hPa
Press
MSL
hPa
Rain
since 9 am
mm
Dir
 
Spd
km/h
Gust
km/h
Spd
kts
Gust
kts
13/11:30am 28.5 23.1 15.9 46 7.8 S 39 48 21 26 1015.3 - 0.0
13/11:00am 29.8 25.1 15.9 43 8.6 S 35 48 19 26 1015.7 - 0.0
13/10:30am 28.2 24.2 16.1 47 7.5 S 32 41 17 22 1016.2 - 0.0
13/10:00am 27.8 24.4 16.7 50 6.9 S 30 41 16 22 1016.3 - 0.0
13/09:30am 27.7 22.7 14.0 43 8.2 SE 33 44 18 24 1016.5 - 0.0
13/09:00am 26.0 21.4 15.2 51 6.5 SSE 33 43 18 23 1016.5 1016.3 0.0
13/08:30am 24.4 19.4 16.0 59 5.1 SSE 37 44 20 24 1016.6 - 0.0
13/08:00am 23.8 19.0 16.5 63 4.5 SSE 37 44 20 24 1016.7 - 0.0
13/07:30am 23.1 20.4 17.5 70 3.5 SSE 28 39 15 21 1016.9 - 0.0
13/07:00am 21.5 20.4 17.8 79 2.3 SSE 20 26 11 14 1016.8 - 0.0
13/06:30am 20.4 19.3 17.7 84 1.7 SSE 20 26 11 14 1016.5 - 0.0
13/06:00am 20.7 19.7 18.0 84 1.7 SE 20 28 11 15 1016.3 1016.1 0.0
13/05:30am 21.5 18.2 18.0 80 2.2 SSE 32 41 17 22 1016.0 - 0.0
13/05:01am 21.6 18.3 18.3 81 2.1 SSE 33 48 18 26 1015.9 - 0.0
13/05:00am 21.6 18.5 18.3 81 2.1 SSE 32 48 17 26 1015.9 - 0.0
13/04:56am 21.6 18.5 18.4 82 2.0 SSE 32 46 17 25 1015.8 - 0.0
13/04:30am 21.9 18.2 18.4 80 2.2 SSE 35 48 19 26 1015.4 - 0.0
13/04:00am 21.8 18.2 18.6 82 2.0 SSE 35 46 19 25 1015.0 - 0.0
13/03:30am 21.9 18.2 19.1 84 1.8 S 37 52 20 28 1015.0 - 0.0
13/03:00am 22.0 18.9 18.9 82 2.0 S 33 48 18 26 1015.5 1015.3 0.0
13/02:46am 21.9 18.3 18.6 81 2.1 SSE 35 50 19 27 1015.4 - 0.0
13/02:45am 21.9 18.3 18.6 81 2.1 SSE 35 50 19 27 1015.4 - 0.0
13/02:30am 21.7 18.4 18.4 81 2.1 S 33 48 18 26 1015.3 - 0.0
13/02:00am 21.7 20.1 19.3 86 1.5 S 26 39 14 21 1015.3 - 0.0
13/01:30am 21.6 18.7 19.3 87 1.5 S 33 43 18 23 1015.4 - 0.0
13/01:00am 21.6 18.7 19.3 87 1.5 S 33 46 18 25 1015.8 - 0.0
13/12:52am 21.5 18.8 19.3 87 1.4 S 32 43 17 23 1015.6 - 0.0
13/12:30am 21.5 19.2 19.3 87 1.4 S 30 43 16 23 1015.7 - 0.0
13/12:00am 21.4 18.5 19.3 88 1.3 S 33 46 18 25 1015.9 1015.7 0.0
 
Date/Time
WST
Temp
°C
App
Temp
°C
Dew
Point
Rel
Hum
%
Delta-T
°C
Wind Press
QNH
hPa
Press
MSL
hPa
Rain
since 9 am
mm
Dir
 
Spd
km/h
Gust
km/h
Spd
kts
Gust
kts
12/11:37pm 21.5 18.7 19.1 86 1.5 S 32 50 17 27 1016.0 - 0.0
12/11:30pm 21.5 18.5 19.0 86 1.6 S 33 48 18 26 1016.1 - 0.0
12/11:00pm 21.6 18.2 19.0 85 1.6 S 35 44 19 24 1016.1 - 0.0
12/10:30pm 21.7 18.2 18.8 83 1.8 S 35 44 19 24 1016.1 - 0.0
12/10:00pm 21.9 18.3 18.6 81 2.1 S 35 46 19 25 1016.1 - 0.0
12/09:30pm 22.1 18.6 18.0 77 2.6 S 33 48 18 26 1016.2 - 0.0
12/09:00pm 22.2 18.3 17.0 72 3.2 S 33 48 18 26 1016.0 1015.8 0.0
12/08:30pm 22.1 19.6 18.0 77 2.6 SSE 28 39 15 21 1015.9 - 0.0
12/08:00pm 22.2 19.4 18.3 78 2.4 S 30 41 16 22 1015.5 - 0.0
12/07:30pm 22.4 19.0 18.1 76 2.7 S 33 44 18 24 1015.0 - 0.0
12/07:00pm 22.8 19.0 18.0 74 3.0 S 35 46 19 25 1014.6 - 0.0
12/06:44pm 23.2 20.1 18.3 74 3.1 S 32 50 17 27 1014.5 - 0.0
12/06:30pm 23.6 19.1 18.2 71 3.4 S 39 54 21 29 1014.5 - 0.0
12/06:08pm 24.4 20.7 17.5 65 4.3 S 33 52 18 28 1014.3 - 0.0
12/06:00pm 24.5 20.7 18.2 68 4.0 S 35 48 19 26 1014.3 1014.1 0.0
12/05:30pm 25.0 20.2 18.4 66 4.2 S 41 52 22 28 1014.2 - 0.0
12/05:00pm 25.5 20.9 18.1 63 4.7 S 39 52 21 28 1014.0 - 0.0
12/04:30pm 26.0 21.0 17.9 61 5.1 S 41 54 22 29 1013.7 - 0.0
12/04:00pm 26.2 20.9 18.6 63 4.8 S 44 54 24 29 1013.7 - 0.0
12/03:30pm 27.2 21.4 17.4 55 6.2 S 44 56 24 30 1013.6 - 0.0
12/03:00pm 27.0 22.1 18.2 58 5.6 S 41 54 22 29 1013.9 1013.7 0.0
12/02:30pm 28.6 24.2 18.5 54 6.5 S 39 48 21 26 1014.0 - 0.0
12/02:00pm 27.7 23.2 18.3 56 6.0 S 39 50 21 27 1014.2 - 0.0
12/01:30pm 28.0 24.0 18.5 56 6.1 S 37 46 20 25 1014.4 - 0.0
12/01:00pm 28.8 24.4 18.4 53 6.7 S 39 46 21 25 1014.5 - 0.0
12/12:30pm 29.3 25.9 18.9 53 6.7 S 35 46 19 25 1014.9 - 0.0
12/12:00pm 27.1 23.9 19.4 62 5.0 S 35 48 19 26 1015.1 1014.9 0.0
12/11:30am 26.8 23.2 19.3 63 4.8 S 37 48 20 26 1015.2 - 0.0
12/11:00am 26.9 24.0 19.3 63 4.9 S 33 46 18 25 1015.3 - 0.0
12/10:30am 26.4 23.0 19.1 64 4.7 S 35 46 19 25 1015.5 - 0.0
12/10:00am 26.0 22.5 18.8 64 4.6 S 35 44 19 24 1015.7 - 0.0
12/09:30am 25.5 22.5 19.1 67 4.1 S 33 44 18 24 1015.6 - 0.0
12/09:00am 25.0 22.1 19.3 70 3.7 S 33 43 18 23 1015.6 1015.4 0.0
12/08:30am 25.3 23.3 19.2 69 3.9 S 28 39 15 21 1016.0 - 0.0
12/08:00am 24.3 21.9 19.0 72 3.4 S 30 41 16 22 1015.8 - 0.0
12/07:30am 23.3 20.6 19.3 78 2.6 S 32 37 17 20 1015.7 - 0.0
12/07:25am 22.9 20.2 19.3 80 2.3 S 32 37 17 20 1015.7 - 0.0
12/07:00am 21.1 22.1 19.4 90 1.1 SSE 13 19 7 10 1015.7 - 0.0
12/06:30am 20.1 21.3 19.0 93 0.7 SSE 11 13 6 7 1015.7 - 0.0
12/06:00am 20.2 21.0 19.0 93 0.8 SSE 13 17 7 9 1015.5 1015.3 0.0
12/05:30am 20.5 20.6 19.1 92 0.9 SSE 17 24 9 13 1015.1 - 0.0
12/05:24am 20.6 20.7 19.2 92 0.9 SSE 17 24 9 13 1015.1 - 0.0
12/05:00am 21.0 20.7 19.1 89 1.2 SE 19 24 10 13 1015.0 - 0.0
12/04:30am 22.5 22.0 19.9 85 1.7 SSE 22 30 12 16 1014.8 - 0.0
12/04:00am 22.4 21.8 19.8 85 1.7 S 22 30 12 16 1014.4 - 0.0
12/03:30am 22.3 21.3 19.7 85 1.7 S 24 30 13 16 1013.7 - 0.0
12/03:00am 22.5 21.1 19.7 84 1.8 S 26 33 14 18 1013.4 1013.2 0.0
12/02:30am 22.3 20.9 19.7 85 1.7 S 26 33 14 18 1013.3 - 0.0
12/02:00am 22.2 20.4 19.6 85 1.7 S 28 37 15 20 1013.3 - 0.0
12/01:30am 22.3 20.5 19.6 85 1.7 SSE 28 35 15 19 1013.3 - 0.0
12/01:00am 22.6 21.4 20.0 85 1.7 SSE 26 33 14 18 1013.7 - 0.0
12/12:30am 22.5 21.2 19.9 85 1.7 S 26 32 14 17 1013.8 - 0.0
12/12:00am 22.5 21.7 20.1 86 1.5 S 24 33 13 18 1013.6 1013.4 0.0
 
Date/Time
WST
Temp
°C
App
Temp
°C
Dew
Point
Rel
Hum
%
Delta-T
°C
Wind Press
QNH
hPa
Press
MSL
hPa
Rain
since 9 am
mm
Dir
 
Spd
km/h
Gust
km/h
Spd
kts
Gust
kts
11/11:30pm 22.5 21.8 20.2 87 1.5 S 24 33 13 18 1013.8 - 0.0
11/11:00pm 22.3 21.7 20.5 89 1.2 S 24 28 13 15 1013.8 - 0.0
11/10:42pm 22.2 22.5 20.5 90 1.1 S 19 26 10 14 1013.9 - 0.0
11/10:30pm 22.2 22.6 20.6 91 1.0 S 19 24 10 13 1013.8 - 0.0
11/10:00pm 22.5 22.3 20.6 89 1.2 S 22 28 12 15 1013.7 - 0.0
11/09:30pm 22.6 21.8 20.8 89 1.2 S 26 33 14 18 1013.3 - 0.0
11/09:00pm 22.6 22.8 20.6 88 1.3 S 20 26 11 14 1013.3 1013.1 0.0
11/08:30pm 22.8 23.0 20.5 87 1.5 S 20 26 11 14 1013.1 - 0.0
11/08:00pm 23.0 23.1 20.4 85 1.7 S 20 28 11 15 1012.9 - 0.0
11/07:30pm 23.2 22.6 20.5 85 1.8 S 24 32 13 17 1012.5 - 0.0
11/07:00pm 23.7 23.0 20.3 81 2.2 S 24 32 13 17 1012.2 - 0.0
11/06:30pm 24.5 23.0 20.2 77 2.8 S 28 37 15 20 1012.0 - 0.0
11/06:00pm 25.2 23.2 20.0 73 3.4 S 30 37 16 20 1011.6 1011.4 0.0
11/05:30pm 25.6 23.0 19.6 69 3.9 S 32 41 17 22 1011.5 - 0.0
11/05:00pm 25.7 23.9 20.3 72 3.5 S 30 39 16 21 1011.4 - 0.0
11/04:30pm 26.8 24.9 20.1 66 4.4 S 30 41 16 22 1011.2 - 0.0
11/04:00pm 26.5 24.3 20.3 68 4.1 S 32 39 17 21 1011.3 - 0.0
11/03:30pm 27.3 25.0 20.2 65 4.7 S 32 43 17 23 1011.2 - 0.0
11/03:00pm 28.1 25.7 20.0 61 5.3 SSW 32 39 17 21 1011.2 1011.0 0.0
11/02:30pm 27.7 25.3 19.9 62 5.1 SSW 32 43 17 23 1011.4 - 0.0
11/02:00pm 29.0 26.7 19.3 55 6.3 S 30 37 16 20 1011.5 - 0.0
11/01:30pm 28.9 26.6 18.5 53 6.7 S 28 35 15 19 1011.5 - 0.0
11/01:00pm 28.1 26.0 19.7 60 5.5 S 30 39 16 21 1011.9 - 0.0
11/12:30pm 27.4 25.6 19.6 62 5.1 S 28 35 15 19 1012.2 - 0.0
11/12:00pm 28.0 26.3 19.7 60 5.4 SSW 28 33 15 18 1012.2 1012.0 0.0
11/11:30am 27.5 25.8 19.9 63 5.0 SSW 28 35 15 19 1012.3 - 0.0
11/11:00am 27.3 26.1 20.0 64 4.8 SSW 26 33 14 18 1012.2 - 0.0
11/10:30am 28.2 27.4 20.1 61 5.3 S 24 30 13 16 1012.1 - 0.0
11/10:00am 28.2 27.8 20.2 62 5.3 S 22 28 12 15 1012.2 - 0.0
11/09:30am 28.5 28.9 20.9 63 5.0 SSW 20 24 11 13 1012.4 - 0.0
11/09:00am 28.1 29.4 20.2 62 5.2 SSE 13 19 7 10 1012.5 1012.3 0.0
11/08:30am 26.0 26.7 19.6 68 4.1 SSE 15 19 8 10 1012.4 - 0.0
11/08:00am 24.2 24.9 20.4 79 2.5 SSE 17 20 9 11 1012.4 - 0.0
11/07:30am 23.8 25.6 21.1 85 1.8 ESE 13 17 7 9 1012.3 - 0.0
11/07:00am 22.7 23.6 20.9 89 1.2 SSE 17 20 9 11 1012.1 - 0.0
11/06:30am 22.6 23.9 20.9 90 1.1 SE 15 17 8 9 1012.2 - 0.0
11/06:00am 22.4 22.8 21.0 92 0.9 SE 20 24 11 13 1012.0 1011.8 0.0
11/05:30am 22.5 23.1 21.1 92 0.9 SSE 19 24 10 13 1011.7 - 0.0
11/05:00am 22.6 23.2 21.1 91 1.0 SSE 19 24 10 13 1011.6 - 0.0
11/04:30am 22.7 23.2 21.2 91 1.0 SSE 20 24 11 13 1011.6 - 0.0
11/04:00am 22.7 24.3 21.4 92 0.9 SSE 15 20 8 11 1011.6 - 0.0
11/03:30am 22.4 24.6 21.2 93 0.8 S 11 19 6 10 1011.5 - 0.0
11/03:00am 22.6 24.5 21.3 92 0.9 S 13 17 7 9 1011.6 1011.4 0.0
11/02:30am 22.3 24.8 21.1 93 0.8 SE 9 13 5 7 1011.3 - 0.0
11/02:00am 21.9 24.6 20.7 93 0.8 S 7 13 4 7 1011.5 - 0.0
11/01:30am 21.1 23.8 20.2 95 0.6 SSW 6 9 3 5 1011.5 - 0.0
11/01:29am 21.2 23.6 20.1 93 0.7 SSW 7 9 4 5 1011.5 - 0.0
11/01:24am 21.0 23.1 20.1 95 0.6 SW 9 9 5 5 1011.5 - 0.0
11/01:02am 20.5 23.2 19.5 94 0.6 S 4 7 2 4 1011.5 - 0.0
11/01:00am 20.4 23.5 19.5 95 0.6 S 2 7 1 4 1011.5 - 0.0
11/12:30am 20.9 23.4 19.9 94 0.6 SSE 6 9 3 5 1011.7 - 0.0
11/12:00am 20.7 23.8 19.6 93 0.7 SE 2 6 1 3 1011.9 1011.7 0.0
 
Date/Time
WST
Temp
°C
App
Temp
°C
Dew
Point
Rel
Hum
%
Delta-T
°C
Wind Press
QNH
hPa
Press
MSL
hPa
Rain
since 9 am
mm
Dir
 
Spd
km/h
Gust
km/h
Spd
kts
Gust
kts
10/11:30pm 21.6 24.2 20.4 93 0.8 SSE 7 9 4 5 1012.1 - 0.0
10/11:00pm 22.2 24.6 20.9 92 0.8 SSE 9 11 5 6 1012.5 - 0.0
10/10:30pm 22.6 24.8 21.2 92 0.9 S 11 15 6 8 1012.5 - 0.0
10/10:00pm 22.8 24.7 21.3 91 1.0 S 13 15 7 8 1012.7 - 0.0
10/09:30pm 23.0 23.8 21.4 91 1.1 S 19 22 10 12 1012.6 - 0.0
10/09:00pm 23.1 23.7 21.1 88 1.3 S 19 22 10 12 1012.6 1012.4 0.0
10/08:30pm 23.3 24.8 21.2 88 1.4 S 15 19 8 10 1012.6 - 0.0
10/08:00pm 23.5 24.1 21.3 87 1.4 SSE 20 28 11 15 1012.3 - 0.0
10/07:30pm 23.9 23.5 21.0 84 1.9 S 24 32 13 17 1012.1 - 0.0
10/07:00pm 24.4 23.3 21.1 82 2.2 S 28 32 15 17 1011.7 - 0.0
10/06:30pm 25.4 24.7 21.0 76 2.9 S 26 32 14 17 1011.4 - 0.0
10/06:00pm 26.2 25.8 20.9 72 3.5 S 24 28 13 15 1011.2 1011.0 0.0
10/05:30pm 27.1 26.0 20.3 66 4.5 S 26 32 14 17 1011.2 - 0.0
10/05:00pm 27.5 26.6 19.9 63 5.0 S 24 33 13 18 1011.1 - 0.0
10/04:30pm 28.5 27.4 20.2 60 5.5 S 26 35 14 19 1011.2 - 0.0
10/04:00pm 29.1 27.6 20.2 58 5.9 S 28 35 15 19 1011.0 - 0.0
10/03:30pm 28.4 26.3 19.7 59 5.7 S 30 35 16 19 1011.1 - 0.0
10/03:00pm 28.6 26.8 19.6 58 5.9 SSW 28 37 15 20 1011.2 1011.0 0.0
10/02:30pm 28.9 27.4 18.5 53 6.7 SSW 24 33 13 18 1011.4 - 0.0
10/02:00pm 29.4 28.3 19.4 55 6.5 S 24 32 13 17 1011.7 - 0.0
10/01:30pm 29.7 28.4 19.1 53 6.9 S 24 35 13 19 1011.7 - 0.0
10/01:00pm 30.3 29.7 18.9 50 7.4 S 20 30 11 16 1011.7 - 0.0
10/12:30pm 28.6 27.6 19.6 58 5.9 S 24 32 13 17 1012.0 - 0.0

Other Formats:

Comma delimited format used in spreadsheet applications
http://www.bom.gov.au/fwo/IDW60801/IDW60801.94403.axf

JavaScript Object Notation format (JSON) in row-major order
http://www.bom.gov.au/fwo/IDW60801/IDW60801.94403.json